createdAt,value
2022-12-16T00:00:06.592Z,984.78
2022-12-16T00:01:06.627Z,984.79
2022-12-16T00:02:07.665Z,984.73
2022-12-16T00:03:06.631Z,984.77
2022-12-16T00:04:06.568Z,984.74
2022-12-16T00:05:06.549Z,984.76
2022-12-16T00:06:06.560Z,984.72
2022-12-16T00:07:06.537Z,984.77
2022-12-16T00:08:06.535Z,984.77
2022-12-16T00:09:06.528Z,984.83
2022-12-16T00:10:06.523Z,984.76
2022-12-16T00:11:06.522Z,984.79
2022-12-16T00:12:06.508Z,984.88
2022-12-16T00:13:10.523Z,984.83
2022-12-16T00:14:07.487Z,984.82
2022-12-16T00:15:06.477Z,984.80
2022-12-16T00:16:06.609Z,984.89
2022-12-16T00:17:07.463Z,984.89
2022-12-16T00:18:06.461Z,984.81
2022-12-16T00:19:06.447Z,984.81
2022-12-16T00:20:06.444Z,984.79
2022-12-16T00:21:06.436Z,984.73
2022-12-16T00:22:07.022Z,984.71
2022-12-16T00:23:07.005Z,984.72
2022-12-16T00:24:06.410Z,984.69
2022-12-16T00:25:06.430Z,984.76
2022-12-16T00:26:06.411Z,984.68
2022-12-16T00:27:48.212Z,984.83
2022-12-16T00:28:48.201Z,984.75
2022-12-16T00:29:48.216Z,984.76
2022-12-16T00:30:49.293Z,984.71
2022-12-16T00:31:49.311Z,984.73
2022-12-16T00:32:50.142Z,984.69
2022-12-16T00:33:49.268Z,984.70
2022-12-16T00:34:49.250Z,984.66
2022-12-16T00:35:49.245Z,984.69
2022-12-16T00:36:49.245Z,984.70
2022-12-16T00:37:49.242Z,984.69
2022-12-16T00:38:49.251Z,984.72
2022-12-16T00:39:49.220Z,984.71
2022-12-16T00:40:49.230Z,984.76
2022-12-16T00:41:49.235Z,984.81
2022-12-16T00:43:56.995Z,984.79
2022-12-16T00:44:57.020Z,984.74
2022-12-16T00:45:57.024Z,984.71
2022-12-16T00:46:56.983Z,984.75
2022-12-16T00:47:58.068Z,984.80
2022-12-16T00:48:58.073Z,984.75
2022-12-16T00:49:58.062Z,984.77
2022-12-16T00:50:58.046Z,984.72
2022-12-16T00:51:58.045Z,984.69
2022-12-16T00:52:58.045Z,984.70
2022-12-16T00:53:58.029Z,984.80
2022-12-16T00:54:58.008Z,984.81
2022-12-16T00:55:58.023Z,984.81
2022-12-16T00:56:58.011Z,984.84
2022-12-16T00:57:57.987Z,984.85
2022-12-16T00:58:57.999Z,984.79
2022-12-16T00:59:57.971Z,984.84
2022-12-16T01:00:58.035Z,984.74
2022-12-16T01:01:58.333Z,984.72
2022-12-16T01:02:58.113Z,984.78
2022-12-16T01:04:45.889Z,984.72
2022-12-16T01:05:45.890Z,984.75
2022-12-16T01:06:45.874Z,984.74
2022-12-16T01:07:45.859Z,984.72
2022-12-16T01:08:45.965Z,984.74
2022-12-16T01:09:45.846Z,984.80
2022-12-16T01:10:45.848Z,984.74
2022-12-16T01:11:45.837Z,984.78
2022-12-16T01:12:45.822Z,984.80
2022-12-16T01:13:46.910Z,984.82
2022-12-16T01:14:46.906Z,984.85
2022-12-16T01:15:46.909Z,984.83
2022-12-16T01:16:46.968Z,984.80
2022-12-16T01:17:46.882Z,984.80
2022-12-16T01:18:46.872Z,984.77
2022-12-16T01:19:47.864Z,984.81
2022-12-16T01:20:46.867Z,984.79
2022-12-16T01:21:46.867Z,984.78
2022-12-16T01:22:46.868Z,984.79
2022-12-16T01:23:46.836Z,984.84
2022-12-16T01:24:46.830Z,984.83
2022-12-16T01:25:46.820Z,984.86
2022-12-16T01:26:46.820Z,984.86
2022-12-16T01:27:46.802Z,984.77
2022-12-16T01:28:46.802Z,984.90
2022-12-16T01:29:46.787Z,984.84
2022-12-16T01:30:46.792Z,984.90
2022-12-16T01:31:46.839Z,984.85
2022-12-16T01:32:46.781Z,984.90
2022-12-16T01:33:46.761Z,984.95
2022-12-16T01:34:51.055Z,984.91
2022-12-16T01:35:55.812Z,984.90
2022-12-16T01:36:48.767Z,984.93
2022-12-16T01:37:46.741Z,984.91
2022-12-16T01:38:46.727Z,984.92
2022-12-16T01:39:46.725Z,984.93
2022-12-16T01:40:47.710Z,984.88
2022-12-16T01:41:47.700Z,984.95
2022-12-16T01:42:46.696Z,984.86
2022-12-16T01:43:46.696Z,984.89
2022-12-16T01:44:46.673Z,984.89
2022-12-16T01:45:46.722Z,984.94
2022-12-16T01:46:46.661Z,984.90
2022-12-16T01:47:46.670Z,984.91
2022-12-16T01:48:46.648Z,984.92
2022-12-16T01:49:46.646Z,984.87
2022-12-16T01:50:46.640Z,984.91
2022-12-16T01:51:52.457Z,984.82
2022-12-16T01:52:48.619Z,984.86
2022-12-16T01:53:46.613Z,984.91
2022-12-16T01:54:46.604Z,984.91
2022-12-16T01:55:46.591Z,984.85
2022-12-16T01:56:46.597Z,984.86
2022-12-16T01:57:46.574Z,984.90
2022-12-16T01:58:46.589Z,984.87
2022-12-16T01:59:46.568Z,984.84
2022-12-16T02:00:46.597Z,984.81
2022-12-16T02:01:46.625Z,984.82
2022-12-16T02:02:46.667Z,984.82
2022-12-16T02:03:46.530Z,984.84
2022-12-16T02:04:46.532Z,984.86
2022-12-16T02:05:46.517Z,984.87
2022-12-16T02:06:46.506Z,984.85
2022-12-16T02:07:46.507Z,984.83
2022-12-16T02:08:46.487Z,984.89
2022-12-16T02:09:46.480Z,984.83
2022-12-16T02:10:46.494Z,984.92
2022-12-16T02:11:46.464Z,984.83
2022-12-16T02:12:46.457Z,984.88
2022-12-16T02:13:46.446Z,984.85
2022-12-16T02:14:46.444Z,984.91
2022-12-16T02:15:46.454Z,984.91
2022-12-16T02:16:46.457Z,984.95
2022-12-16T02:17:46.422Z,984.89
2022-12-16T02:18:46.438Z,984.96
2022-12-16T02:19:46.427Z,984.91
2022-12-16T02:20:46.410Z,984.98
2022-12-16T02:21:46.401Z,984.93
2022-12-16T02:22:46.393Z,984.94
2022-12-16T02:23:46.378Z,984.89
2022-12-16T02:24:46.371Z,984.91
2022-12-16T02:25:46.377Z,984.86
2022-12-16T02:26:46.361Z,984.89
2022-12-16T02:27:46.350Z,984.91
2022-12-16T02:28:46.347Z,984.89
2022-12-16T02:29:46.338Z,984.89
2022-12-16T02:30:46.363Z,984.93
2022-12-16T02:31:49.232Z,984.89
2022-12-16T02:32:48.317Z,984.88
2022-12-16T02:33:46.308Z,984.88
2022-12-16T02:34:46.305Z,984.87
2022-12-16T02:35:46.297Z,984.92
2022-12-16T02:36:46.306Z,984.91
2022-12-16T02:37:46.276Z,984.91
2022-12-16T02:38:46.264Z,984.97
2022-12-16T02:39:46.261Z,984.96
2022-12-16T02:40:46.251Z,984.98
2022-12-16T02:41:46.285Z,984.98
2022-12-16T02:42:46.244Z,985.07
2022-12-16T02:43:46.227Z,985.01
2022-12-16T02:44:46.261Z,985.01
2022-12-16T02:45:46.251Z,985.03
2022-12-16T02:46:46.205Z,985.04
2022-12-16T02:47:46.203Z,985.09
2022-12-16T02:48:46.194Z,985.11
2022-12-16T02:49:46.183Z,985.12
2022-12-16T02:50:46.178Z,985.10
2022-12-16T02:51:46.174Z,985.17
2022-12-16T02:52:46.164Z,985.10
2022-12-16T02:53:46.178Z,985.11
2022-12-16T02:54:46.143Z,985.09
2022-12-16T02:55:46.138Z,985.13
2022-12-16T02:56:46.131Z,985.13
2022-12-16T02:57:46.119Z,985.18
2022-12-16T02:58:47.116Z,985.18
2022-12-16T02:59:46.112Z,985.11
2022-12-16T03:00:46.104Z,985.15
2022-12-16T03:01:46.203Z,985.12
2022-12-16T03:02:46.166Z,985.13
2022-12-16T03:03:46.106Z,985.20
2022-12-16T03:04:46.071Z,985.17
2022-12-16T03:05:46.783Z,985.18
2022-12-16T03:06:46.778Z,985.15
2022-12-16T03:07:46.051Z,985.22
2022-12-16T03:08:46.042Z,985.17
2022-12-16T03:09:46.030Z,985.15
2022-12-16T03:10:46.021Z,985.19
2022-12-16T03:11:46.018Z,985.12
2022-12-16T03:12:47.014Z,985.10
2022-12-16T03:13:46.001Z,985.15
2022-12-16T03:14:45.996Z,985.12
2022-12-16T03:15:45.984Z,985.16
2022-12-16T03:16:46.124Z,985.19
2022-12-16T03:17:45.968Z,985.16
2022-12-16T03:18:45.991Z,985.13
2022-12-16T03:19:45.965Z,985.12
2022-12-16T03:20:45.946Z,985.09
2022-12-16T03:21:45.936Z,985.10
2022-12-16T03:22:45.939Z,985.12
2022-12-16T03:23:45.929Z,985.03
2022-12-16T03:24:45.927Z,985.07
2022-12-16T03:25:47.715Z,985.11
2022-12-16T03:26:45.911Z,985.08
2022-12-16T03:27:45.903Z,985.06
2022-12-16T03:28:45.884Z,985.11
2022-12-16T03:29:45.887Z,985.08
2022-12-16T03:30:45.970Z,985.04
2022-12-16T03:31:45.878Z,985.06
2022-12-16T03:32:45.867Z,985.00
2022-12-16T03:33:45.852Z,985.03
2022-12-16T03:34:45.842Z,984.98
2022-12-16T03:35:45.848Z,985.02
2022-12-16T03:36:45.835Z,985.01
2022-12-16T03:37:45.831Z,984.98
2022-12-16T03:38:45.811Z,984.99
2022-12-16T03:39:45.795Z,984.99
2022-12-16T03:40:46.825Z,984.99
2022-12-16T03:41:45.782Z,985.01
2022-12-16T03:42:45.785Z,985.02
2022-12-16T03:43:45.774Z,984.96
2022-12-16T03:44:45.769Z,985.00
2022-12-16T03:45:45.847Z,985.00
2022-12-16T03:46:45.826Z,985.03
2022-12-16T03:47:45.746Z,985.04
2022-12-16T03:48:45.738Z,985.04
2022-12-16T03:49:45.734Z,985.04
2022-12-16T03:50:45.719Z,985.00
2022-12-16T03:51:45.718Z,985.02
2022-12-16T03:52:45.718Z,985.04
2022-12-16T03:53:45.701Z,985.02
2022-12-16T03:54:45.697Z,985.05
2022-12-16T03:55:45.684Z,985.16
2022-12-16T03:56:45.691Z,985.15
2022-12-16T03:57:45.672Z,985.11
2022-12-16T03:58:45.670Z,985.07
2022-12-16T03:59:45.660Z,985.13
2022-12-16T04:00:45.645Z,985.12
2022-12-16T04:01:46.340Z,985.13
2022-12-16T04:02:45.809Z,985.11
2022-12-16T04:03:45.667Z,985.18
2022-12-16T04:04:45.615Z,985.12
2022-12-16T04:05:45.609Z,985.15
2022-12-16T04:06:45.598Z,985.18
2022-12-16T04:07:45.600Z,985.16
2022-12-16T04:08:45.582Z,985.14
2022-12-16T04:09:45.579Z,985.17
2022-12-16T04:10:45.567Z,985.22
2022-12-16T04:11:45.569Z,985.23
2022-12-16T04:12:45.561Z,985.23
2022-12-16T04:13:45.555Z,985.17
2022-12-16T04:14:50.282Z,985.27
2022-12-16T04:15:47.603Z,985.24
2022-12-16T04:16:45.524Z,985.26
2022-12-16T04:17:45.520Z,985.24
2022-12-16T04:18:45.513Z,985.24
2022-12-16T04:19:45.507Z,985.18
2022-12-16T04:20:45.496Z,985.29
2022-12-16T04:21:45.486Z,985.24
2022-12-16T04:22:45.502Z,985.26
2022-12-16T04:23:45.481Z,985.29
2022-12-16T04:24:45.479Z,985.29
2022-12-16T04:25:45.459Z,985.33
2022-12-16T04:26:45.458Z,985.35
2022-12-16T04:27:45.451Z,985.35
2022-12-16T04:28:45.449Z,985.34
2022-12-16T04:29:47.459Z,985.33
2022-12-16T04:30:45.495Z,985.27
2022-12-16T04:31:46.283Z,985.28
2022-12-16T04:32:45.807Z,985.33
2022-12-16T04:33:45.399Z,985.35
2022-12-16T04:34:45.405Z,985.32
2022-12-16T04:35:45.394Z,985.35
2022-12-16T04:36:45.384Z,985.39
2022-12-16T04:37:45.382Z,985.39
2022-12-16T04:38:45.369Z,985.44
2022-12-16T04:39:45.359Z,985.40
2022-12-16T04:40:45.354Z,985.42
2022-12-16T04:41:45.347Z,985.47
2022-12-16T04:42:45.340Z,985.44
2022-12-16T04:43:45.325Z,985.46
2022-12-16T04:44:45.318Z,985.51
2022-12-16T04:45:45.320Z,985.51
2022-12-16T04:46:45.378Z,985.49
2022-12-16T04:47:45.301Z,985.55
2022-12-16T04:48:45.291Z,985.56
2022-12-16T04:49:45.292Z,985.49
2022-12-16T04:50:45.275Z,985.53
2022-12-16T04:51:45.268Z,985.58
2022-12-16T04:52:46.266Z,985.53
2022-12-16T04:53:45.252Z,985.59
2022-12-16T04:54:45.250Z,985.56
2022-12-16T04:55:45.238Z,985.54
2022-12-16T04:56:45.233Z,985.61
2022-12-16T04:57:45.225Z,985.60
2022-12-16T04:58:45.208Z,985.58
2022-12-16T04:59:45.205Z,985.61
2022-12-16T05:00:45.195Z,985.64
2022-12-16T05:01:45.345Z,985.64
2022-12-16T05:02:45.359Z,985.60
2022-12-16T05:03:45.216Z,985.65
2022-12-16T05:04:45.169Z,985.71
2022-12-16T05:05:45.709Z,985.73
2022-12-16T05:06:45.172Z,985.65
2022-12-16T05:07:45.715Z,985.67
2022-12-16T05:08:45.158Z,985.63
2022-12-16T05:09:45.149Z,985.76
2022-12-16T05:10:45.134Z,985.73
2022-12-16T05:11:45.117Z,985.82
2022-12-16T05:12:45.121Z,985.84
2022-12-16T05:13:45.109Z,985.77
2022-12-16T05:14:45.100Z,985.80
2022-12-16T05:15:45.126Z,985.82
2022-12-16T05:16:45.098Z,985.79
2022-12-16T05:17:45.076Z,985.91
2022-12-16T05:18:45.075Z,985.87
2022-12-16T05:19:45.066Z,985.91
2022-12-16T05:20:45.055Z,985.84
2022-12-16T05:21:45.047Z,985.95
2022-12-16T05:22:45.052Z,985.93
2022-12-16T05:23:45.035Z,985.85
2022-12-16T05:24:48.529Z,985.88
2022-12-16T05:25:47.015Z,985.99
2022-12-16T05:26:45.010Z,985.91
2022-12-16T05:27:45.008Z,985.88
2022-12-16T05:28:44.995Z,985.91
2022-12-16T05:29:44.998Z,985.93
2022-12-16T05:30:45.078Z,985.93
2022-12-16T05:31:45.007Z,985.97
2022-12-16T05:32:44.962Z,985.96
2022-12-16T05:33:44.985Z,985.91
2022-12-16T05:34:44.953Z,985.99
2022-12-16T05:35:44.948Z,986.01
2022-12-16T05:36:45.713Z,985.99
2022-12-16T05:37:44.936Z,985.92
2022-12-16T05:38:44.920Z,985.95
2022-12-16T05:39:44.963Z,985.95
2022-12-16T05:40:44.905Z,986.00
2022-12-16T05:41:44.899Z,986.01
2022-12-16T05:42:44.894Z,986.04
2022-12-16T05:43:44.884Z,985.95
2022-12-16T05:44:44.884Z,986.03
2022-12-16T05:45:45.336Z,986.07
2022-12-16T05:46:44.938Z,986.05
2022-12-16T05:47:45.713Z,986.10
2022-12-16T05:48:47.829Z,986.13
2022-12-16T05:49:45.839Z,986.10
2022-12-16T05:50:44.839Z,986.11
2022-12-16T05:51:44.822Z,986.09
2022-12-16T05:52:44.822Z,986.18
2022-12-16T05:53:44.818Z,986.15
2022-12-16T05:54:44.799Z,986.26
2022-12-16T05:55:44.811Z,986.28
2022-12-16T05:56:44.791Z,986.26
2022-12-16T05:57:44.780Z,986.26
2022-12-16T05:58:44.797Z,986.29
2022-12-16T05:59:44.768Z,986.36
2022-12-16T06:00:44.762Z,986.41
2022-12-16T06:01:44.925Z,986.39
2022-12-16T06:02:44.885Z,986.47
2022-12-16T06:03:44.879Z,986.43
2022-12-16T06:04:44.729Z,986.45
2022-12-16T06:05:44.728Z,986.48
2022-12-16T06:06:44.727Z,986.43
2022-12-16T06:07:44.712Z,986.36
2022-12-16T06:08:44.707Z,986.40
2022-12-16T06:09:44.687Z,986.46
2022-12-16T06:10:44.694Z,986.49
2022-12-16T06:11:44.728Z,986.49
2022-12-16T06:12:44.673Z,986.54
2022-12-16T06:13:44.658Z,986.55
2022-12-16T06:14:44.664Z,986.59
2022-12-16T06:15:44.646Z,986.59
2022-12-16T06:16:44.664Z,986.60
2022-12-16T06:17:45.643Z,986.54
2022-12-16T06:18:44.623Z,986.57
2022-12-16T06:19:44.625Z,986.58
2022-12-16T06:20:44.626Z,986.58
2022-12-16T06:21:44.602Z,986.63
2022-12-16T06:22:45.324Z,986.67
2022-12-16T06:23:44.587Z,986.64
2022-12-16T06:24:44.581Z,986.68
2022-12-16T06:25:44.583Z,986.70
2022-12-16T06:26:44.567Z,986.68
2022-12-16T06:27:44.558Z,986.71
2022-12-16T06:28:46.135Z,986.77
2022-12-16T06:29:45.540Z,986.78
2022-12-16T06:30:44.554Z,986.78
2022-12-16T06:31:44.576Z,986.71
2022-12-16T06:32:44.525Z,986.75
2022-12-16T06:33:44.514Z,986.72
2022-12-16T06:34:44.506Z,986.74
2022-12-16T06:35:44.492Z,986.82
2022-12-16T06:36:44.498Z,986.80
2022-12-16T06:37:44.482Z,986.84
2022-12-16T06:38:44.478Z,986.82
2022-12-16T06:39:47.526Z,986.86
2022-12-16T06:40:45.472Z,986.96
2022-12-16T06:41:45.219Z,986.93
2022-12-16T06:42:44.448Z,986.96
2022-12-16T06:43:44.448Z,986.95
2022-12-16T06:44:44.437Z,987.05
2022-12-16T06:45:44.473Z,987.02
2022-12-16T06:46:44.417Z,987.05
2022-12-16T06:47:44.418Z,987.07
2022-12-16T06:48:44.444Z,987.06
2022-12-16T06:49:44.533Z,987.02
2022-12-16T06:50:45.141Z,987.00
2022-12-16T06:51:45.378Z,987.03
2022-12-16T06:52:44.390Z,987.03
2022-12-16T06:54:51.339Z,987.07
2022-12-16T06:55:51.342Z,987.06
2022-12-16T06:56:51.328Z,987.06
2022-12-16T06:57:51.330Z,987.18
2022-12-16T06:58:51.316Z,987.15
2022-12-16T06:59:51.316Z,987.17
2022-12-16T07:00:51.352Z,987.19
2022-12-16T07:01:51.578Z,987.23
2022-12-16T07:02:51.442Z,987.18
2022-12-16T07:03:51.289Z,987.17
2022-12-16T07:04:53.196Z,987.18
2022-12-16T07:05:53.361Z,987.15
2022-12-16T07:06:52.358Z,987.23
2022-12-16T07:07:52.520Z,987.23
2022-12-16T07:08:53.335Z,987.23
2022-12-16T07:09:53.473Z,987.31
2022-12-16T07:10:52.346Z,987.29
2022-12-16T07:11:52.314Z,987.32
2022-12-16T07:12:52.310Z,987.31
2022-12-16T07:13:52.363Z,987.36
2022-12-16T07:14:53.209Z,987.40
2022-12-16T07:15:52.287Z,987.38
2022-12-16T07:16:52.346Z,987.39
2022-12-16T07:17:52.281Z,987.42
2022-12-16T07:18:52.279Z,987.47
2022-12-16T07:19:52.273Z,987.48
2022-12-16T07:20:52.262Z,987.47
2022-12-16T07:21:52.251Z,987.45
2022-12-16T07:23:01.066Z,987.41
2022-12-16T07:23:54.238Z,987.47
2022-12-16T07:24:52.222Z,987.50
2022-12-16T07:25:52.220Z,987.46
2022-12-16T07:26:52.220Z,987.48
2022-12-16T07:27:52.282Z,987.50
2022-12-16T07:28:52.209Z,987.49
2022-12-16T07:29:52.193Z,987.54
2022-12-16T07:30:52.181Z,987.56
2022-12-16T07:31:52.286Z,987.58
2022-12-16T07:32:52.168Z,987.56
2022-12-16T07:33:52.150Z,987.59
2022-12-16T07:34:52.161Z,987.62
2022-12-16T07:35:52.139Z,987.65
2022-12-16T07:36:53.129Z,987.64
2022-12-16T07:37:52.196Z,987.60
2022-12-16T07:38:52.141Z,987.69
2022-12-16T07:39:55.218Z,987.76
2022-12-16T07:40:53.107Z,987.72
2022-12-16T07:41:52.104Z,987.81
2022-12-16T07:42:52.132Z,987.80
2022-12-16T07:43:52.084Z,987.84
2022-12-16T07:44:52.111Z,987.79
2022-12-16T07:45:52.094Z,987.86
2022-12-16T07:46:52.067Z,987.90
2022-12-16T07:47:52.049Z,987.92
2022-12-16T07:48:52.059Z,987.90
2022-12-16T07:49:52.048Z,987.97
2022-12-16T07:50:52.022Z,987.98
2022-12-16T07:51:52.051Z,987.97
2022-12-16T07:52:52.010Z,988.02
2022-12-16T07:53:52.009Z,988.03
2022-12-16T07:54:51.998Z,988.02
2022-12-16T07:55:51.990Z,988.06
2022-12-16T07:56:51.989Z,988.11
2022-12-16T07:57:51.967Z,988.10
2022-12-16T07:58:51.963Z,988.07
2022-12-16T07:59:51.968Z,988.13
2022-12-16T08:00:51.972Z,988.14
2022-12-16T08:01:52.634Z,988.17
2022-12-16T08:02:52.094Z,988.16
2022-12-16T08:03:52.172Z,988.12
2022-12-16T08:04:51.915Z,988.19
2022-12-16T08:05:51.920Z,988.20
2022-12-16T08:06:51.899Z,988.16
2022-12-16T08:07:51.897Z,988.17
2022-12-16T08:08:51.893Z,988.19
2022-12-16T08:09:51.894Z,988.18
2022-12-16T08:10:51.886Z,988.25
2022-12-16T08:11:51.872Z,988.29
2022-12-16T08:12:51.921Z,988.22
2022-12-16T08:13:51.862Z,988.25
2022-12-16T08:14:51.858Z,988.25
2022-12-16T08:15:51.851Z,988.31
2022-12-16T08:16:51.885Z,988.25
2022-12-16T08:17:52.458Z,988.26
2022-12-16T08:18:51.818Z,988.29
2022-12-16T08:19:51.868Z,988.31
2022-12-16T08:20:51.800Z,988.28
2022-12-16T08:21:59.726Z,988.27
2022-12-16T08:22:54.294Z,988.26
2022-12-16T08:24:58.106Z,988.36
2022-12-16T08:25:58.112Z,988.33
2022-12-16T08:27:19.099Z,988.35
2022-12-16T08:27:58.150Z,988.41
2022-12-16T08:29:05.530Z,988.43
2022-12-16T08:30:01.967Z,988.35
2022-12-16T08:30:59.252Z,988.40
2022-12-16T08:32:00.151Z,988.41
2022-12-16T08:33:07.189Z,988.46
2022-12-16T08:34:01.152Z,988.46
2022-12-16T08:35:00.109Z,988.48
2022-12-16T08:35:59.113Z,988.50
2022-12-16T08:36:59.110Z,988.56
2022-12-16T08:37:59.097Z,988.57
2022-12-16T08:38:59.099Z,988.58
2022-12-16T08:40:25.637Z,988.62
2022-12-16T08:41:01.071Z,988.63
2022-12-16T08:41:59.068Z,988.63
2022-12-16T08:42:59.062Z,988.58
2022-12-16T08:43:59.046Z,988.59
2022-12-16T08:44:59.045Z,988.61
2022-12-16T08:45:59.059Z,988.60
2022-12-16T08:46:59.060Z,988.65
2022-12-16T08:47:59.016Z,988.64
2022-12-16T08:48:59.010Z,988.68
2022-12-16T08:50:01.712Z,988.73
2022-12-16T08:51:00.009Z,988.69
2022-12-16T08:51:59.012Z,988.73
2022-12-16T08:52:58.983Z,988.75
2022-12-16T08:53:58.977Z,988.81
2022-12-16T08:54:58.973Z,988.83
2022-12-16T08:55:58.969Z,988.77
2022-12-16T08:56:58.973Z,988.77
2022-12-16T08:57:58.944Z,988.82
2022-12-16T08:58:58.933Z,988.79
2022-12-16T08:59:58.941Z,988.83
2022-12-16T09:01:04.696Z,988.85
2022-12-16T09:02:00.995Z,988.79
2022-12-16T09:02:59.214Z,988.85
2022-12-16T09:03:58.977Z,988.88
2022-12-16T09:04:59.900Z,988.90
2022-12-16T09:05:58.876Z,988.91
2022-12-16T09:06:58.871Z,988.90
2022-12-16T09:07:58.855Z,988.88
2022-12-16T09:08:58.845Z,988.91
2022-12-16T09:09:58.862Z,988.94
2022-12-16T09:10:58.842Z,988.98
2022-12-16T09:11:58.829Z,988.99
2022-12-16T09:12:58.821Z,988.98
2022-12-16T09:13:58.809Z,988.98
2022-12-16T09:14:58.798Z,988.97
2022-12-16T09:16:00.062Z,989.01
2022-12-16T09:16:58.791Z,988.98
2022-12-16T09:17:58.804Z,989.06
2022-12-16T09:18:58.776Z,989.05
2022-12-16T09:19:58.770Z,989.09
2022-12-16T09:20:58.780Z,989.09
2022-12-16T09:21:58.749Z,989.15
2022-12-16T09:22:58.762Z,989.20
2022-12-16T09:23:58.750Z,989.19
2022-12-16T09:24:58.730Z,989.23
2022-12-16T09:25:58.840Z,989.24
2022-12-16T09:26:58.854Z,989.21
2022-12-16T09:27:58.703Z,989.31
2022-12-16T09:28:58.701Z,989.25
2022-12-16T09:29:58.691Z,989.28
2022-12-16T09:30:58.764Z,989.23
2022-12-16T09:31:58.670Z,989.25
2022-12-16T09:32:58.679Z,989.32
2022-12-16T09:33:58.653Z,989.32
2022-12-16T09:34:58.648Z,989.29
2022-12-16T09:35:58.641Z,989.26
2022-12-16T09:36:58.643Z,989.33
2022-12-16T09:37:58.649Z,989.35
2022-12-16T09:38:58.633Z,989.31
2022-12-16T09:39:58.611Z,989.33
2022-12-16T09:40:58.637Z,989.42
2022-12-16T09:41:58.606Z,989.41
2022-12-16T09:42:59.553Z,989.41
2022-12-16T09:43:59.485Z,989.37
2022-12-16T09:44:58.574Z,989.40
2022-12-16T09:45:58.596Z,989.39
2022-12-16T09:47:00.958Z,989.51
2022-12-16T09:48:00.549Z,989.47
2022-12-16T09:48:58.557Z,989.47
2022-12-16T09:49:58.540Z,989.47
2022-12-16T09:50:58.525Z,989.55
2022-12-16T09:51:58.521Z,989.52
2022-12-16T09:52:58.504Z,989.47
2022-12-16T09:53:59.500Z,989.53
2022-12-16T09:54:58.504Z,989.44
2022-12-16T09:55:58.494Z,989.47
2022-12-16T09:56:58.486Z,989.46
2022-12-16T09:57:58.474Z,989.51
2022-12-16T09:58:58.479Z,989.47
2022-12-16T09:59:58.465Z,989.48
2022-12-16T10:00:58.455Z,989.48
2022-12-16T10:01:58.623Z,989.52
2022-12-16T10:03:04.884Z,989.48
2022-12-16T10:04:00.513Z,989.55
2022-12-16T10:04:58.421Z,989.53
2022-12-16T10:05:58.416Z,989.50
2022-12-16T10:06:58.402Z,989.45
2022-12-16T10:07:58.396Z,989.45
2022-12-16T10:08:58.407Z,989.44
2022-12-16T10:09:58.385Z,989.40
2022-12-16T10:10:58.374Z,989.40
2022-12-16T10:11:58.370Z,989.47
2022-12-16T10:12:58.354Z,989.47
2022-12-16T10:13:58.356Z,989.37
2022-12-16T10:14:58.340Z,989.40
2022-12-16T10:15:58.358Z,989.39
2022-12-16T10:16:58.326Z,989.40
2022-12-16T10:17:58.318Z,989.42
2022-12-16T10:18:58.429Z,989.41
2022-12-16T10:19:58.312Z,989.46
2022-12-16T10:20:59.053Z,989.37
2022-12-16T10:21:58.289Z,989.39
2022-12-16T10:22:58.290Z,989.44
2022-12-16T10:23:58.270Z,989.47
2022-12-16T10:24:58.261Z,989.50
2022-12-16T10:25:58.252Z,989.44
2022-12-16T10:26:58.268Z,989.47
2022-12-16T10:27:58.976Z,989.53
2022-12-16T10:28:58.259Z,989.49
2022-12-16T10:29:58.232Z,989.52
2022-12-16T10:30:59.106Z,989.48
2022-12-16T10:31:58.222Z,989.51
2022-12-16T10:32:58.202Z,989.52
2022-12-16T10:33:58.204Z,989.50
2022-12-16T10:34:58.191Z,989.41
2022-12-16T10:35:59.057Z,989.39
2022-12-16T10:36:58.172Z,989.46
2022-12-16T10:37:58.171Z,989.43
2022-12-16T10:38:58.168Z,989.41
2022-12-16T10:39:58.155Z,989.47
2022-12-16T10:40:58.139Z,989.42
2022-12-16T10:41:58.187Z,989.39
2022-12-16T10:42:58.127Z,989.38
2022-12-16T10:43:58.124Z,989.41
2022-12-16T10:44:58.125Z,989.41
2022-12-16T10:45:58.144Z,989.42
2022-12-16T10:46:58.181Z,989.44
2022-12-16T10:47:58.086Z,989.51
2022-12-16T10:48:59.088Z,989.46
2022-12-16T10:49:58.125Z,989.46
2022-12-16T10:50:58.072Z,989.50
2022-12-16T10:51:58.054Z,989.53
2022-12-16T10:52:58.063Z,989.48
2022-12-16T10:53:58.037Z,989.47
2022-12-16T10:54:58.049Z,989.46
2022-12-16T10:55:58.022Z,989.47
2022-12-16T10:56:58.586Z,989.50
2022-12-16T10:57:58.020Z,989.48
2022-12-16T10:58:58.092Z,989.50
2022-12-16T10:59:58.024Z,989.55
2022-12-16T11:00:58.005Z,989.52
2022-12-16T11:01:58.062Z,989.56
2022-12-16T11:02:58.169Z,989.52
2022-12-16T11:03:58.014Z,989.57
2022-12-16T11:04:58.953Z,989.60
2022-12-16T11:05:57.941Z,989.53
2022-12-16T11:06:57.941Z,989.61
2022-12-16T11:07:57.919Z,989.62
2022-12-16T11:08:57.919Z,989.63
2022-12-16T11:09:57.913Z,989.59
2022-12-16T11:10:57.899Z,989.70
2022-12-16T11:13:04.665Z,989.66
2022-12-16T11:14:04.899Z,989.61
2022-12-16T11:15:28.271Z,989.67
2022-12-16T11:16:05.703Z,989.68
2022-12-16T11:17:04.634Z,989.65
2022-12-16T11:18:04.629Z,989.64
2022-12-16T11:19:04.618Z,989.75
2022-12-16T11:20:04.618Z,989.69
2022-12-16T11:21:08.664Z,989.70
2022-12-16T11:22:05.591Z,989.70
2022-12-16T11:23:05.672Z,989.64
2022-12-16T11:24:05.679Z,989.69
2022-12-16T11:25:05.693Z,989.67
2022-12-16T11:26:05.661Z,989.72
2022-12-16T11:27:05.655Z,989.73
2022-12-16T11:28:05.638Z,989.75
2022-12-16T11:29:05.701Z,989.73
2022-12-16T11:30:05.751Z,989.74
2022-12-16T11:31:05.704Z,989.71
2022-12-16T11:32:05.641Z,989.71
2022-12-16T11:33:05.618Z,989.70
2022-12-16T11:34:05.631Z,989.69
2022-12-16T11:35:05.578Z,989.68
2022-12-16T11:36:05.600Z,989.73
2022-12-16T11:37:05.615Z,989.70
2022-12-16T11:38:05.567Z,989.70
2022-12-16T11:39:05.550Z,989.74
2022-12-16T11:40:05.540Z,989.74
2022-12-16T11:41:05.542Z,989.72
2022-12-16T11:42:05.553Z,989.67
2022-12-16T11:43:11.613Z,989.77
2022-12-16T11:44:07.523Z,989.67
2022-12-16T11:45:05.511Z,989.68
2022-12-16T11:46:05.568Z,989.72
2022-12-16T11:47:06.244Z,989.74
2022-12-16T11:48:53.103Z,989.74
2022-12-16T11:49:53.095Z,989.77
2022-12-16T11:50:53.752Z,989.75
2022-12-16T11:52:03.814Z,989.75
2022-12-16T11:52:56.863Z,989.83
2022-12-16T11:53:54.160Z,989.81
2022-12-16T11:54:54.212Z,989.84
2022-12-16T11:56:05.831Z,989.81
2022-12-16T11:56:56.391Z,989.85
2022-12-16T11:57:54.831Z,989.94
2022-12-16T11:58:55.271Z,989.87
2022-12-16T11:59:55.364Z,989.85
2022-12-16T12:00:54.134Z,989.92
2022-12-16T12:01:55.469Z,989.90
2022-12-16T12:02:54.143Z,989.92
2022-12-16T12:03:55.918Z,989.94
2022-12-16T12:04:55.838Z,989.95
2022-12-16T12:05:54.080Z,989.95
2022-12-16T12:06:54.058Z,989.86
2022-12-16T12:07:55.573Z,989.94
2022-12-16T12:08:54.059Z,989.98
2022-12-16T12:09:54.051Z,990.04
2022-12-16T12:10:54.022Z,990.00
2022-12-16T12:11:54.017Z,989.97
2022-12-16T12:12:56.797Z,989.98
2022-12-16T12:13:54.018Z,990.06
2022-12-16T12:14:54.011Z,990.08
2022-12-16T21:26:56.605Z,996.11
2022-12-16T21:27:56.585Z,996.03
2022-12-16T21:28:56.572Z,996.07
2022-12-16T21:29:57.660Z,996.08
2022-12-16T21:30:57.670Z,996.10
2022-12-16T21:31:57.669Z,996.13
2022-12-16T21:32:57.639Z,996.11
2022-12-16T21:33:57.636Z,996.13
2022-12-16T21:34:57.627Z,996.10
2022-12-16T21:35:57.620Z,996.21
2022-12-16T21:36:57.620Z,996.14
2022-12-16T21:37:57.604Z,996.15
2022-12-16T21:38:57.597Z,996.19
2022-12-16T21:39:58.589Z,996.17
2022-12-16T21:40:57.577Z,996.17
2022-12-16T21:41:57.576Z,996.19
2022-12-16T21:42:57.574Z,996.21
2022-12-16T21:43:57.563Z,996.26
2022-12-16T21:44:57.554Z,996.29
2022-12-16T21:45:57.548Z,996.30